createdAt,value
2023-12-04T00:01:54.647Z,-0.23
2023-12-04T00:04:23.510Z,-0.28
2023-12-04T00:06:52.409Z,-0.34
2023-12-04T00:09:22.521Z,-0.52
2023-12-04T00:11:51.595Z,-0.42
2023-12-04T00:14:20.496Z,-0.60
2023-12-04T00:16:48.545Z,-0.38
2023-12-04T00:19:17.493Z,-0.68
2023-12-04T00:21:46.821Z,-0.38
2023-12-04T00:24:15.881Z,-0.52
2023-12-04T00:26:44.608Z,-0.55
2023-12-04T00:29:13.967Z,-0.58
2023-12-04T00:31:42.740Z,-0.79
2023-12-04T00:34:11.431Z,-0.59
2023-12-04T00:36:40.582Z,-0.81
2023-12-04T00:39:09.343Z,-0.89
2023-12-04T00:41:39.739Z,-0.91
2023-12-04T00:44:08.869Z,-0.99
2023-12-04T00:46:37.550Z,-0.80
2023-12-04T00:49:06.390Z,-0.78
2023-12-04T00:51:41.761Z,-0.83
2023-12-04T00:54:11.029Z,-1.07
2023-12-04T00:56:42.286Z,-0.94
2023-12-04T00:59:13.698Z,-1.13
2023-12-04T01:01:42.659Z,-0.98
2023-12-04T01:04:11.426Z,-0.95
2023-12-04T01:06:40.135Z,-1.12
2023-12-04T01:09:08.930Z,-1.00
2023-12-04T01:11:39.342Z,-1.05
2023-12-04T01:14:07.998Z,-1.24
2023-12-04T01:16:36.727Z,-1.29
2023-12-04T01:19:05.587Z,-1.47
2023-12-04T01:21:34.491Z,-1.64
2023-12-04T01:24:03.197Z,-1.80
2023-12-04T01:26:32.113Z,-1.86
2023-12-04T01:29:01.895Z,-1.93
2023-12-04T01:31:30.697Z,-2.02
2023-12-04T01:33:59.602Z,-2.08
2023-12-04T01:36:28.343Z,-2.05
2023-12-04T01:38:57.090Z,-2.24
2023-12-04T01:41:25.787Z,-2.09
2023-12-04T01:43:54.530Z,-2.23
2023-12-04T01:46:23.420Z,-2.02
2023-12-04T01:48:52.751Z,-2.26
2023-12-04T01:51:23.030Z,-2.07
2023-12-04T01:53:52.186Z,-2.08
2023-12-04T01:56:22.563Z,-2.03
2023-12-04T01:58:50.656Z,-2.16
2023-12-04T02:01:22.173Z,-2.17
2023-12-04T02:03:50.913Z,-2.01
2023-12-04T02:06:22.614Z,-2.12
2023-12-04T02:08:51.541Z,-2.06
2023-12-04T02:11:20.474Z,-2.03
2023-12-04T02:13:49.470Z,-2.05
2023-12-04T02:16:20.776Z,-2.02
2023-12-04T02:18:50.033Z,-2.05
2023-12-04T02:21:19.062Z,-2.07
2023-12-04T02:23:53.141Z,-2.03
2023-12-04T02:26:28.980Z,-2.07
2023-12-04T02:29:02.762Z,-2.16
2023-12-04T02:31:33.999Z,-2.23
2023-12-04T02:34:07.793Z,-2.48
2023-12-04T02:36:38.340Z,-2.32
2023-12-04T02:39:07.769Z,-2.38
2023-12-04T02:41:36.661Z,-2.54
2023-12-04T02:44:04.755Z,-2.44
2023-12-04T02:46:33.607Z,-2.47
2023-12-04T02:49:03.192Z,-2.48
2023-12-04T02:51:32.020Z,-2.53
2023-12-04T02:54:01.244Z,-2.49
2023-12-04T02:56:29.909Z,-2.67
2023-12-04T02:58:59.103Z,-2.48
2023-12-04T03:01:27.933Z,-2.43
2023-12-04T03:03:56.753Z,-2.61
2023-12-04T03:06:25.562Z,-2.62
2023-12-04T03:08:54.398Z,-2.43
2023-12-04T03:11:23.137Z,-2.46
2023-12-04T03:13:52.002Z,-2.34
2023-12-04T03:16:21.522Z,-2.40
2023-12-04T03:18:50.330Z,-2.45
2023-12-04T03:21:19.184Z,-2.33
2023-12-04T03:23:47.187Z,-2.45
2023-12-04T03:26:15.886Z,-2.52
2023-12-04T03:28:44.824Z,-2.48
2023-12-04T03:31:14.301Z,-2.31
2023-12-04T03:33:43.180Z,-2.42
2023-12-04T03:36:12.201Z,-2.44
2023-12-04T03:38:40.920Z,-2.29
2023-12-04T03:41:17.585Z,-2.48
2023-12-04T03:43:46.492Z,-2.31
2023-12-04T03:46:15.252Z,-2.31
2023-12-04T03:48:44.226Z,-2.30
2023-12-04T03:51:12.945Z,-2.35
2023-12-04T03:53:41.681Z,-2.42
2023-12-04T03:56:11.195Z,-2.56
2023-12-04T03:58:41.128Z,-2.44
2023-12-04T04:01:09.945Z,-2.68
2023-12-04T04:03:41.618Z,-2.54
2023-12-04T04:06:11.233Z,-2.59
2023-12-04T04:08:40.132Z,-2.62
2023-12-04T04:11:09.292Z,-2.60
2023-12-04T04:13:37.978Z,-2.55
2023-12-04T04:16:07.188Z,-2.43
2023-12-04T04:18:36.013Z,-2.48
2023-12-04T04:21:05.518Z,-2.49
2023-12-04T04:23:34.446Z,-2.52
2023-12-04T04:26:03.341Z,-2.51
2023-12-04T04:28:32.086Z,-2.41
2023-12-04T04:31:01.224Z,-2.45
2023-12-04T04:33:30.369Z,-2.54
2023-12-04T04:35:59.280Z,-2.36
2023-12-04T04:38:28.269Z,-2.43
2023-12-04T04:40:56.975Z,-2.40
2023-12-04T04:43:25.736Z,-2.59
2023-12-04T04:45:54.556Z,-2.47
2023-12-04T04:48:23.268Z,-2.42
2023-12-04T04:50:55.075Z,-2.43
2023-12-04T04:53:25.225Z,-2.51
2023-12-04T04:55:54.480Z,-2.37
2023-12-04T04:58:23.220Z,-2.30
2023-12-04T05:00:51.953Z,-2.36
2023-12-04T05:03:21.869Z,-2.36
2023-12-04T05:05:51.295Z,-2.36
2023-12-04T05:08:20.319Z,-2.40
2023-12-04T05:10:49.137Z,-2.37
2023-12-04T05:13:18.001Z,-2.38
2023-12-04T05:15:46.717Z,-2.43
2023-12-04T05:18:15.451Z,-2.59
2023-12-04T05:20:44.088Z,-2.64
2023-12-04T05:23:12.816Z,-2.46
2023-12-04T05:25:45.131Z,-2.44
2023-12-04T05:28:19.299Z,-2.45
2023-12-04T05:30:47.975Z,-2.44
2023-12-04T05:33:16.948Z,-2.57
2023-12-04T05:35:45.383Z,-2.42
2023-12-04T05:38:13.459Z,-2.44
2023-12-04T05:40:42.237Z,-2.46
2023-12-04T05:43:11.158Z,-2.53
2023-12-04T05:45:40.200Z,-2.51
2023-12-04T05:48:09.153Z,-2.58
2023-12-04T05:50:37.998Z,-2.48
2023-12-04T05:53:06.746Z,-2.25
2023-12-04T05:55:35.577Z,-2.41
2023-12-04T05:58:04.763Z,-2.37
2023-12-04T06:00:33.477Z,-2.17
2023-12-04T06:03:02.246Z,-2.12
2023-12-04T06:05:33.434Z,-2.24
2023-12-04T06:08:02.238Z,-2.21
2023-12-04T06:10:31.369Z,-2.12
2023-12-04T06:12:59.682Z,-2.23
2023-12-04T06:15:28.522Z,-2.29
2023-12-04T06:17:57.511Z,-2.39
2023-12-04T06:20:26.867Z,-2.65
2023-12-04T06:22:56.144Z,-2.46
2023-12-04T06:25:25.713Z,-2.70
2023-12-04T06:27:54.822Z,-2.80
2023-12-04T06:30:23.516Z,-2.97
2023-12-04T06:32:51.955Z,-2.91
2023-12-04T06:35:21.316Z,-3.14
2023-12-04T06:37:52.512Z,-3.19
2023-12-04T06:40:22.177Z,-3.29
2023-12-04T06:42:51.541Z,-3.19
2023-12-04T06:45:21.152Z,-3.28
2023-12-04T06:47:53.507Z,-3.73
2023-12-04T06:50:22.438Z,-3.49
2023-12-04T06:52:51.132Z,-3.56
2023-12-04T06:55:20.014Z,-3.84
2023-12-04T06:57:49.132Z,-3.77
2023-12-04T07:00:21.849Z,-4.04
2023-12-04T07:02:52.821Z,-3.88
2023-12-04T07:05:23.788Z,-3.88
2023-12-04T07:07:52.483Z,-3.89
2023-12-04T07:10:21.425Z,-3.88
2023-12-04T07:12:50.366Z,-4.18
2023-12-04T07:15:19.606Z,-4.04
2023-12-04T07:17:48.635Z,-4.10
2023-12-04T07:20:17.560Z,-4.08
2023-12-04T07:22:46.279Z,-4.14
2023-12-04T07:25:14.990Z,-4.24
2023-12-04T07:27:43.796Z,-4.27
2023-12-04T07:30:15.018Z,-4.35
2023-12-04T07:32:44.938Z,-4.61
2023-12-04T07:35:13.445Z,-4.65
2023-12-04T07:37:42.206Z,-4.56
2023-12-04T07:40:12.741Z,-4.61
2023-12-04T07:42:41.125Z,-4.72
2023-12-04T07:45:10.740Z,-4.80
2023-12-04T07:47:39.781Z,-4.86
2023-12-04T07:50:09.150Z,-4.89
2023-12-04T07:52:37.868Z,-4.89
2023-12-04T07:55:07.153Z,-4.89
2023-12-04T07:57:35.975Z,-5.10
2023-12-04T08:00:05.546Z,-5.02
2023-12-04T08:02:34.302Z,-5.06
2023-12-04T08:05:03.152Z,-5.22
2023-12-04T08:07:31.918Z,-5.21
2023-12-04T08:10:00.836Z,-5.21
2023-12-04T08:12:29.735Z,-5.40
2023-12-04T08:14:58.384Z,-5.20
2023-12-04T08:17:27.052Z,-5.25
2023-12-04T08:19:56.597Z,-5.30
2023-12-04T08:22:25.536Z,-5.38
2023-12-04T08:24:54.853Z,-5.36
2023-12-04T08:27:23.681Z,-5.53
2023-12-04T08:29:52.691Z,-5.36
2023-12-04T08:32:22.960Z,-5.65
2023-12-04T08:34:51.667Z,-5.50
2023-12-04T08:37:21.673Z,-5.67
2023-12-04T08:39:50.517Z,-5.66
2023-12-04T08:42:23.753Z,-5.59
2023-12-04T08:44:53.016Z,-5.62
2023-12-04T08:47:21.845Z,-5.65
2023-12-04T08:49:50.626Z,-5.84
2023-12-04T08:52:19.788Z,-5.80
2023-12-04T08:54:48.796Z,-5.60
2023-12-04T08:57:17.681Z,-5.71
2023-12-04T08:59:45.842Z,-5.76
2023-12-04T09:02:15.362Z,-5.94
2023-12-04T09:04:44.427Z,-5.71
2023-12-04T09:08:27.854Z,-5.67
2023-12-04T09:10:08.361Z,-5.46
2023-12-04T09:12:43.592Z,-5.42
2023-12-04T09:15:12.676Z,-5.21
2023-12-04T09:20:11.594Z,-5.07
2023-12-04T09:22:50.135Z,-4.90
2023-12-04T09:25:22.134Z,-5.08
2023-12-04T09:27:51.033Z,-4.97
2023-12-04T09:30:20.496Z,-4.86
2023-12-04T09:32:49.300Z,-5.07
2023-12-04T09:35:18.099Z,-4.91
2023-12-04T09:37:48.013Z,-4.87
2023-12-04T09:40:16.853Z,-4.85
2023-12-04T09:42:45.676Z,-4.82
2023-12-04T09:45:15.875Z,-4.80
2023-12-04T09:47:45.616Z,-5.11
2023-12-04T09:50:14.969Z,-4.96
2023-12-04T09:52:43.944Z,-4.97
2023-12-04T09:55:12.924Z,-5.06
2023-12-04T09:57:42.280Z,-5.08
2023-12-04T10:00:15.055Z,-5.08
2023-12-04T10:02:44.629Z,-4.97
2023-12-04T10:05:13.184Z,-4.97
2023-12-04T10:07:42.210Z,-4.94
2023-12-04T10:10:11.418Z,-4.81
2023-12-04T10:12:40.467Z,-4.96
2023-12-04T10:15:11.358Z,-4.74
2023-12-04T10:17:46.141Z,-4.75
2023-12-04T10:20:20.467Z,-4.81
2023-12-04T10:22:57.652Z,-4.91
2023-12-04T10:25:28.708Z,-5.04
2023-12-04T10:27:57.999Z,-4.96
2023-12-04T10:30:27.565Z,-4.93
2023-12-04T10:33:03.149Z,-4.98
2023-12-04T10:35:33.499Z,-4.97
2023-12-04T10:38:02.715Z,-4.99
2023-12-04T10:40:36.041Z,-5.13
2023-12-04T10:43:26.691Z,-4.99
2023-12-04T10:45:57.286Z,-5.21
2023-12-04T10:48:26.382Z,-5.10
2023-12-04T10:50:55.776Z,-5.12
2023-12-04T10:53:25.010Z,-5.23
2023-12-04T10:55:57.290Z,-5.01
2023-12-04T10:58:29.654Z,-5.20
2023-12-04T11:01:03.984Z,-4.92
2023-12-04T11:03:46.650Z,-5.02
2023-12-04T11:06:18.383Z,-5.11
2023-12-04T11:08:51.924Z,-5.10
2023-12-04T11:11:34.357Z,-5.01
2023-12-04T11:14:06.769Z,-5.19
2023-12-04T11:16:50.228Z,-5.09
2023-12-04T11:19:31.864Z,-5.22
2023-12-04T11:22:01.982Z,-5.14
2023-12-04T11:24:31.245Z,-5.06
2023-12-04T11:27:00.570Z,-5.12
2023-12-04T11:29:31.570Z,-4.97
2023-12-04T11:32:00.297Z,-4.91
2023-12-04T11:34:29.020Z,-5.04
2023-12-04T11:36:58.833Z,-4.74
2023-12-04T11:39:29.141Z,-4.80
2023-12-04T11:41:58.003Z,-4.70
2023-12-04T11:44:31.544Z,-4.64
2023-12-04T11:47:07.377Z,-4.87
2023-12-04T11:49:37.579Z,-4.71
2023-12-04T11:52:06.753Z,-4.74
2023-12-04T11:55:03.004Z,-4.77
2023-12-04T11:57:36.738Z,-4.90
2023-12-04T12:00:25.416Z,-4.84
2023-12-04T12:03:16.414Z,-4.85
2023-12-04T12:05:46.560Z,-5.09
2023-12-04T12:08:15.488Z,-4.93
2023-12-04T12:10:44.319Z,-5.17
2023-12-04T12:13:14.054Z,-5.28
2023-12-04T12:15:42.832Z,-5.14
2023-12-04T12:18:12.336Z,-5.21
2023-12-04T12:20:41.400Z,-5.22
2023-12-04T12:23:11.120Z,-5.26
2023-12-04T12:25:40.637Z,-5.32
2023-12-04T12:28:09.381Z,-5.48
2023-12-04T12:30:38.148Z,-5.57
2023-12-04T12:33:07.018Z,-5.42
2023-12-04T12:35:35.988Z,-5.52
2023-12-04T12:38:04.717Z,-5.43
2023-12-04T12:40:33.499Z,-5.57
2023-12-04T12:43:12.206Z,-5.67
2023-12-04T12:45:52.815Z,-5.72
2023-12-04T12:48:22.261Z,-5.74
2023-12-04T12:50:51.124Z,-5.95
2023-12-04T12:53:20.787Z,-6.04
2023-12-04T12:55:50.242Z,-6.12
2023-12-04T12:58:22.959Z,-6.21
2023-12-04T13:00:52.078Z,-6.15
2023-12-04T13:03:21.973Z,-6.21
2023-12-04T13:05:51.293Z,-6.28
2023-12-04T13:08:20.194Z,-6.47
2023-12-04T13:10:49.006Z,-6.61
2023-12-04T13:13:18.010Z,-6.47
2023-12-04T13:15:46.738Z,-6.77
2023-12-04T13:18:15.559Z,-6.79
2023-12-04T13:20:45.767Z,-6.99
2023-12-04T13:23:14.451Z,-6.97
2023-12-04T13:25:42.689Z,-6.71
2023-12-04T13:28:19.979Z,-6.60
2023-12-04T13:30:58.180Z,-6.76
2023-12-04T13:33:28.501Z,-6.63
2023-12-04T13:35:57.495Z,-6.64
2023-12-04T13:38:32.735Z,-6.49
2023-12-04T13:41:22.153Z,-6.78
2023-12-04T13:43:54.229Z,-6.86
2023-12-04T13:46:23.284Z,-6.81
2023-12-04T13:48:52.051Z,-6.77
2023-12-04T13:51:22.235Z,-6.88
2023-12-04T13:53:52.747Z,-6.90
2023-12-04T13:56:24.343Z,-6.98
2023-12-04T13:58:59.038Z,-7.06
2023-12-04T14:01:32.293Z,-7.07
2023-12-04T14:04:04.564Z,-7.01
2023-12-04T14:06:34.153Z,-7.23
2023-12-04T14:09:03.740Z,-7.25
2023-12-04T14:11:32.702Z,-7.32
2023-12-04T14:14:01.382Z,-7.45
2023-12-04T14:16:31.263Z,-7.61
2023-12-04T14:19:00.718Z,-7.48
2023-12-04T14:21:30.018Z,-7.55
2023-12-04T14:23:58.870Z,-7.68
2023-12-04T14:26:27.230Z,-7.91
2023-12-04T14:28:55.882Z,-7.93
2023-12-04T14:31:24.158Z,-7.69
2023-12-04T14:33:53.066Z,-7.69
2023-12-04T14:36:21.941Z,-7.77
2023-12-04T14:38:50.621Z,-7.99
2023-12-04T14:41:19.404Z,-7.77
2023-12-04T14:43:49.252Z,-7.73
2023-12-04T14:46:19.183Z,-7.98
2023-12-04T14:48:47.904Z,-7.99
2023-12-04T14:51:16.549Z,-7.76
2023-12-04T14:54:07.411Z,-8.10
2023-12-04T14:56:39.031Z,-8.15
2023-12-04T14:59:07.400Z,-7.91
2023-12-04T15:01:51.514Z,-8.15
2023-12-04T15:04:38.751Z,-7.93
2023-12-04T15:07:30.050Z,-7.91
2023-12-04T15:10:17.544Z,-7.95
2023-12-04T15:12:52.008Z,-7.90
2023-12-04T15:15:49.366Z,-7.99
2023-12-04T15:18:38.453Z,-7.72
2023-12-04T15:21:07.633Z,-7.66
2023-12-04T15:23:36.399Z,-7.66
2023-12-04T15:26:05.364Z,-7.35
2023-12-04T15:28:34.842Z,-7.14
2023-12-04T15:31:04.547Z,-7.01
2023-12-04T15:33:34.130Z,-7.20
2023-12-04T15:36:02.973Z,-7.15
2023-12-04T15:38:34.335Z,-6.82
2023-12-04T15:41:03.177Z,-6.67
2023-12-04T15:43:32.100Z,-6.66
2023-12-04T15:46:01.263Z,-6.27
2023-12-04T15:48:30.281Z,-6.09
2023-12-04T15:50:58.617Z,-6.16
2023-12-04T15:53:26.796Z,-6.07
2023-12-04T15:55:55.451Z,-5.93
2023-12-04T15:58:24.159Z,-5.83
2023-12-04T16:00:52.945Z,-5.88
2023-12-04T16:03:21.927Z,-6.01
2023-12-04T16:05:50.808Z,-5.86
2023-12-04T16:08:19.238Z,-5.68
2023-12-04T16:10:48.136Z,-5.58
2023-12-04T16:13:18.618Z,-5.92
2023-12-04T16:15:50.629Z,-5.73
2023-12-04T16:18:19.996Z,-5.67
2023-12-04T16:20:50.651Z,-5.79
2023-12-04T16:23:19.580Z,-5.80
2023-12-04T16:25:48.343Z,-5.80
2023-12-04T16:28:18.391Z,-5.72
2023-12-04T16:30:47.295Z,-5.85
2023-12-04T16:33:16.147Z,-5.53
2023-12-04T16:35:44.925Z,-5.64
2023-12-04T16:38:13.704Z,-5.41
2023-12-04T16:40:43.051Z,-5.31
2023-12-04T16:43:11.964Z,-5.08
2023-12-04T16:45:40.765Z,-5.14
2023-12-04T16:48:09.768Z,-5.01
2023-12-04T16:50:39.316Z,-4.96
2023-12-04T16:53:07.963Z,-5.08
2023-12-04T16:55:36.616Z,-4.78
2023-12-04T16:58:07.003Z,-4.95
2023-12-04T17:00:38.702Z,-4.67
2023-12-04T17:03:07.622Z,-4.50
2023-12-04T17:05:36.571Z,-4.44
2023-12-04T17:08:05.504Z,-4.28
2023-12-04T17:10:34.703Z,-4.36
2023-12-04T17:13:03.462Z,-4.34
2023-12-04T17:15:32.279Z,-4.06
2023-12-04T17:18:02.214Z,-4.08
2023-12-04T17:20:30.872Z,-3.93
2023-12-04T17:22:59.589Z,-3.83
2023-12-04T17:25:28.498Z,-3.79
2023-12-04T17:27:58.283Z,-3.77
2023-12-04T17:30:27.448Z,-3.69
2023-12-04T17:32:56.260Z,-3.85
2023-12-04T17:35:25.430Z,-3.80
2023-12-04T17:37:54.557Z,-3.61
2023-12-04T17:40:24.149Z,-3.52
2023-12-04T17:42:53.390Z,-3.22
2023-12-04T17:45:22.404Z,-3.03
2023-12-04T17:47:50.851Z,-3.14
2023-12-04T17:50:19.620Z,-2.89
2023-12-04T17:52:48.610Z,-2.59
2023-12-04T17:55:17.531Z,-2.75
2023-12-04T17:57:46.315Z,-2.42
2023-12-04T18:00:16.559Z,-2.54
2023-12-04T18:02:48.617Z,-2.07
2023-12-04T18:05:18.163Z,-1.86
2023-12-04T18:07:46.899Z,-2.05
2023-12-04T18:10:15.899Z,-1.62
2023-12-04T18:12:44.828Z,-1.80
2023-12-04T18:15:13.871Z,-1.81
2023-12-04T18:17:45.145Z,-1.84
2023-12-04T18:20:18.044Z,-1.86
2023-12-04T18:22:47.707Z,-1.81
2023-12-04T18:25:16.860Z,-1.77
2023-12-04T18:27:46.082Z,-1.71
2023-12-04T18:30:18.591Z,-1.64
2023-12-04T18:32:47.731Z,-1.49
2023-12-04T18:35:21.119Z,-1.43
2023-12-04T18:38:08.539Z,-1.24
2023-12-04T18:40:37.523Z,-1.33
2023-12-04T18:43:07.549Z,-1.12
2023-12-04T18:45:39.369Z,-1.05
2023-12-04T18:48:10.339Z,-1.02
2023-12-04T18:50:42.033Z,-0.91
2023-12-04T18:53:12.364Z,-0.69
2023-12-04T18:55:41.972Z,-0.74
2023-12-04T18:58:15.737Z,-0.52
2023-12-04T19:00:44.484Z,-0.42
2023-12-04T19:03:13.350Z,-0.33
2023-12-04T19:05:42.299Z,-0.14
2023-12-04T19:08:10.623Z,-0.12
2023-12-04T19:10:39.503Z,-0.24
2023-12-04T19:13:08.364Z,-0.12
2023-12-04T19:15:37.373Z,0.07
2023-12-04T19:18:06.468Z,0.31
2023-12-04T19:20:39.588Z,0.18
2023-12-04T19:23:08.244Z,0.24
2023-12-04T19:25:49.161Z,0.52
2023-12-04T19:28:19.987Z,0.38
2023-12-04T19:30:48.715Z,0.56
2023-12-04T19:33:22.435Z,0.68
2023-12-04T19:35:54.408Z,0.68
2023-12-04T19:38:24.072Z,0.67
2023-12-04T19:40:52.751Z,0.61
2023-12-04T19:43:23.044Z,0.61
2023-12-04T19:45:51.960Z,0.56
2023-12-04T19:48:20.949Z,0.52
2023-12-04T19:50:49.684Z,0.59
2023-12-04T19:53:18.401Z,0.67
2023-12-04T19:55:47.118Z,0.60
2023-12-04T19:58:16.111Z,0.53
2023-12-04T20:00:44.794Z,0.57
2023-12-04T20:03:14.369Z,0.56
2023-12-04T20:05:44.006Z,0.66
2023-12-04T20:08:13.090Z,0.43
2023-12-04T20:10:42.040Z,0.63
2023-12-04T20:13:10.887Z,0.47
2023-12-04T20:15:40.083Z,0.61
2023-12-04T20:18:11.002Z,0.71
2023-12-04T20:20:39.728Z,0.69
2023-12-04T20:23:08.417Z,0.64
2023-12-04T20:25:37.334Z,0.60
2023-12-04T20:28:06.135Z,0.52
2023-12-04T20:30:34.935Z,0.74
2023-12-04T20:33:05.189Z,0.54
2023-12-04T20:35:36.499Z,0.45
2023-12-04T20:38:05.242Z,0.24
2023-12-04T20:40:33.908Z,0.38
2023-12-04T20:43:02.903Z,0.26
2023-12-04T20:45:31.646Z,0.24
2023-12-04T20:48:00.499Z,0.16
2023-12-04T20:50:30.770Z,0.25
2023-12-04T20:52:59.444Z,0.25
2023-12-04T20:55:28.389Z,0.30
2023-12-04T20:57:58.498Z,0.44
2023-12-04T21:00:27.241Z,0.35
2023-12-04T21:02:56.007Z,0.34
2023-12-04T21:05:25.610Z,0.28
2023-12-04T21:07:53.885Z,0.35
2023-12-04T21:10:23.427Z,0.20
2023-12-04T21:12:52.219Z,0.44
2023-12-04T21:15:21.064Z,0.30
2023-12-04T21:17:49.912Z,0.30
2023-12-04T21:20:20.641Z,0.38
2023-12-04T21:22:49.427Z,0.35
2023-12-04T21:25:18.099Z,0.42
2023-12-04T21:27:46.814Z,0.31
2023-12-04T21:30:18.405Z,0.29
2023-12-04T21:32:48.508Z,0.26
2023-12-04T21:35:17.488Z,0.26
2023-12-04T21:37:46.266Z,0.43
2023-12-04T21:40:15.241Z,0.42
2023-12-04T21:42:43.692Z,0.29
2023-12-04T21:45:12.834Z,0.06
2023-12-04T21:47:41.514Z,0.18
2023-12-04T21:50:10.533Z,0.26
2023-12-04T21:52:40.282Z,0.20
2023-12-04T21:55:10.648Z,0.28
2023-12-04T21:57:39.371Z,0.22
2023-12-04T22:00:09.321Z,0.22
2023-12-04T22:02:38.036Z,0.36
2023-12-04T22:05:07.985Z,0.29
2023-12-04T22:07:36.344Z,0.15
2023-12-04T22:10:05.926Z,0.21
2023-12-04T22:12:35.123Z,0.26
2023-12-04T22:15:03.955Z,0.13
2023-12-04T22:17:32.356Z,0.18
2023-12-04T22:20:01.174Z,0.27
2023-12-04T22:22:30.239Z,0.26
2023-12-04T22:24:59.129Z,0.32
2023-12-04T22:27:27.939Z,0.30
2023-12-04T22:29:57.574Z,0.34
2023-12-04T22:32:26.569Z,0.36
2023-12-04T22:34:55.377Z,0.33
2023-12-04T22:37:24.079Z,0.01
2023-12-04T22:39:52.822Z,-0.22
2023-12-04T22:42:21.943Z,-0.16
2023-12-04T22:44:50.741Z,0.00
2023-12-04T22:47:19.463Z,-0.05
2023-12-04T22:49:48.284Z,-0.02
2023-12-04T22:52:17.250Z,-0.04
2023-12-04T22:54:46.163Z,-0.26
2023-12-04T22:57:15.057Z,-0.29
2023-12-04T22:59:43.879Z,-0.21
2023-12-04T23:02:12.737Z,-0.26
2023-12-04T23:04:41.656Z,-0.36
2023-12-04T23:07:10.889Z,-0.55
2023-12-04T23:09:39.804Z,-0.66
2023-12-04T23:12:08.998Z,-0.70
2023-12-04T23:14:37.841Z,-0.79
2023-12-04T23:17:07.097Z,-0.70
2023-12-04T23:19:35.893Z,-0.93
2023-12-04T23:22:04.524Z,-0.74
2023-12-04T23:24:33.371Z,-0.58
2023-12-04T23:27:02.228Z,-0.57
2023-12-04T23:29:30.929Z,-0.46
2023-12-04T23:32:00.360Z,-0.69
2023-12-04T23:34:29.140Z,-0.48
2023-12-04T23:36:59.924Z,-0.46
2023-12-04T23:39:28.907Z,-0.43
2023-12-04T23:41:57.819Z,-0.42
2023-12-04T23:44:26.710Z,-0.43
2023-12-04T23:46:57.459Z,-0.41
2023-12-04T23:49:26.681Z,-0.55
2023-12-04T23:51:55.522Z,-0.60
2023-12-04T23:54:24.266Z,-0.56
2023-12-04T23:56:53.002Z,-0.40
2023-12-04T23:59:21.237Z,-0.11
